Local Weather Ingen bokad jour idag Friday 28th of April
Flygplats METAR TAF
Airport METAR TAF
ESSL - Linköping282120Z AUTO 06007KT 9999 OVC011/// 02/00 Q1020= 281730Z 2818/2822 09014KT 9999 FEW025 PROB40 2818/2822 2000 BR BKN003=
ESSP - Norrköping282120Z AUTO 05004KT 9999 NCD 01/00 Q1020= NO VALID TAF PUBLISHED
ESGJ - Jönköping282120Z AUTO 11009KT 9999 OVC074/// 05/M01 Q1016= 281730Z 2818/2822 10010KT 9999 SCT040=
ESKN - Skavsta282120Z 05008KT 9999 FEW044 02/M00 Q1020= 281730Z 2818/2918 10012KT 9999 SCT025 PROB40 2818/2823 2000 BR BKN003 BECMG 2819/2821 04006KT BECMG 2916/2918 34014KT=
ESSV - Visby282120Z 06007KT CAVOK 02/02 Q1017= 282030Z 2821/2824 06008KT CAVOK=
ESGG - Göteborg282120Z 10007KT 9999 BKN037 04/02 Q1015= 281730Z 2818/2918 11008KT 9999 -RA BKN020 TEMPO 2818/2820 RADZ BKN009 BECMG 2905/2907 04010KT=